Butler, New Jersey
Current Conditions -  °F | °C
As of 12:53 PM on Friday 19 Dec 2014 (Local Time) from KCDW Reporting Station
Overcast Overcast  
Wind Chill: 28°   Ceiling: 3500
Heat Index: 35°   Visibility: 10mi
Dew Point: 20°   Wind: 9mph
Humidity: 54%   Direction: 320°NW
Pressure: 30.05"   Gusts: NA
Location:  41°N, 74.34°W
Report Text: KCDW 191753Z 32008KT 10SM OVC035 02/M07 A3005 RMK AO2 SLP183 T00171067 10028 20011 55010
Loading
Personal Weather Stations






























Interactive Weather Map New forecast layout! Learn more

10-Day Weather Forecast

Advertisements
Track Severe Weather on mobile